createdAt,value
2023-04-02T00:00:10.771Z,3.42
2023-04-02T00:02:49.264Z,3.42
2023-04-02T00:05:31.678Z,3.63
2023-04-02T00:08:00.859Z,4.10
2023-04-02T00:10:33.569Z,4.53
2023-04-02T00:13:05.118Z,4.28
2023-04-02T00:15:32.454Z,3.97
2023-04-02T00:18:00.413Z,4.18
2023-04-02T00:20:28.475Z,4.35
2023-04-02T00:22:56.490Z,4.72
2023-04-02T00:25:28.034Z,4.55
2023-04-02T00:27:56.283Z,5.10
2023-04-02T00:30:25.626Z,5.55
2023-04-02T00:32:52.625Z,5.63
2023-04-02T00:35:24.895Z,5.88
2023-04-02T00:37:52.388Z,5.75
2023-04-02T00:40:29.603Z,5.10
2023-04-02T00:42:59.040Z,5.32
2023-04-02T00:45:29.233Z,5.10
2023-04-02T00:47:58.635Z,4.75
2023-04-02T00:50:39.180Z,4.63
2023-04-02T00:53:13.490Z,4.47
2023-04-02T00:55:41.823Z,4.30
2023-04-02T00:58:23.416Z,3.97
2023-04-02T01:00:51.170Z,4.00
2023-04-02T01:03:18.556Z,3.63
2023-04-02T01:05:50.521Z,4.07
2023-04-02T01:08:41.857Z,4.40
2023-04-02T01:11:21.491Z,3.70
2023-04-02T01:14:01.058Z,3.83
2023-04-02T01:16:31.432Z,4.40
2023-04-02T01:19:02.053Z,3.80
2023-04-02T01:21:54.069Z,3.92
2023-04-02T01:24:25.140Z,3.63
2023-04-02T01:26:53.460Z,3.80
2023-04-02T01:29:55.722Z,3.90
2023-04-02T01:32:24.698Z,3.65
2023-04-02T01:34:52.651Z,4.15
2023-04-02T01:37:34.335Z,3.90
2023-04-02T01:40:25.394Z,3.65
2023-04-02T01:43:40.413Z,3.75
2023-04-02T01:46:26.496Z,3.80
2023-04-02T01:48:55.004Z,3.42
2023-04-02T01:51:33.628Z,3.75
2023-04-02T01:54:04.918Z,4.20
2023-04-02T01:56:31.899Z,4.50
2023-04-02T01:58:59.210Z,4.30
2023-04-02T02:01:36.365Z,3.60
2023-04-02T02:04:03.600Z,3.28
2023-04-02T02:06:31.360Z,2.92
2023-04-02T02:09:04.602Z,2.70
2023-04-02T02:11:34.518Z,2.45
2023-04-02T02:14:06.782Z,2.45
2023-04-02T02:16:41.669Z,2.15
2023-04-02T02:19:44.849Z,2.40
2023-04-02T02:22:34.120Z,2.47
2023-04-02T02:25:05.453Z,2.58
2023-04-02T02:27:40.672Z,2.50
2023-04-02T02:30:17.072Z,2.47
2023-04-02T02:33:10.256Z,2.08
2023-04-02T02:35:43.554Z,2.05
2023-04-02T02:38:29.270Z,2.38
2023-04-02T02:41:07.729Z,2.33
2023-04-02T02:43:35.881Z,2.03
2023-04-02T02:46:04.706Z,2.40
2023-04-02T02:48:38.066Z,2.13
2023-04-02T02:51:09.884Z,2.70
2023-04-02T02:53:46.666Z,2.20
2023-04-02T02:56:14.474Z,2.13
2023-04-02T02:58:44.007Z,2.40
2023-04-02T03:01:18.819Z,2.30
2023-04-02T03:03:48.316Z,2.50
2023-04-02T03:06:20.732Z,2.47
2023-04-02T03:09:05.082Z,2.38
2023-04-02T03:11:51.294Z,2.88
2023-04-02T03:14:29.120Z,3.22
2023-04-02T03:17:01.444Z,2.92
2023-04-02T03:19:29.597Z,3.20
2023-04-02T03:22:14.021Z,3.17
2023-04-02T03:24:50.293Z,3.33
2023-04-02T03:27:24.377Z,3.28
2023-04-02T03:30:05.179Z,3.40
2023-04-02T03:32:38.319Z,3.70
2023-04-02T03:35:21.654Z,3.80
2023-04-02T03:37:56.511Z,4.03
2023-04-02T03:40:31.787Z,3.83
2023-04-02T03:43:04.261Z,3.65
2023-04-02T03:45:40.619Z,4.07
2023-04-02T03:48:37.121Z,3.63
2023-04-02T03:51:14.934Z,4.15
2023-04-02T03:53:43.466Z,3.80
2023-04-02T03:56:40.021Z,3.92
2023-04-02T03:59:28.728Z,3.72
2023-04-02T04:02:00.221Z,3.85
2023-04-02T04:04:29.571Z,4.00
2023-04-02T04:06:57.465Z,4.00
2023-04-02T04:09:35.855Z,3.95
2023-04-02T04:12:22.438Z,4.28
2023-04-02T04:14:53.570Z,4.90
2023-04-02T04:17:31.446Z,4.97
2023-04-02T04:22:35.629Z,5.78
2023-04-02T04:25:22.505Z,5.63
2023-04-02T04:28:10.699Z,5.32
2023-04-02T04:30:51.602Z,5.65
2023-04-02T04:33:26.242Z,5.63
2023-04-02T04:36:00.681Z,5.78
2023-04-02T04:38:34.872Z,6.00
2023-04-02T04:41:10.669Z,5.85
2023-04-02T04:43:59.551Z,5.80
2023-04-02T04:46:40.072Z,5.38
2023-04-02T04:49:17.659Z,5.38
2023-04-02T04:51:54.223Z,5.03
2023-04-02T04:54:26.293Z,4.75
2023-04-02T04:57:02.183Z,5.15
2023-04-02T04:59:42.899Z,4.88
2023-04-02T05:02:32.926Z,5.00
2023-04-02T05:05:01.097Z,4.10
2023-04-02T05:07:30.494Z,4.90
2023-04-02T05:10:24.775Z,5.68
2023-04-02T05:12:56.552Z,5.05
2023-04-02T05:15:34.055Z,5.22
2023-04-02T05:18:12.848Z,5.25
2023-04-02T05:21:10.346Z,5.25
2023-04-02T05:23:59.975Z,5.72
2023-04-02T05:26:34.019Z,5.25
2023-04-02T05:29:16.191Z,5.70
2023-04-02T05:31:49.005Z,5.78
2023-04-02T05:34:26.345Z,5.82
2023-04-02T05:36:55.705Z,5.78
2023-04-02T05:39:25.735Z,6.07
2023-04-02T05:42:01.370Z,6.00
2023-04-02T05:44:44.187Z,5.15
2023-04-02T05:47:18.553Z,5.80
2023-04-02T05:50:01.175Z,5.97
2023-04-02T05:52:32.510Z,6.45
2023-04-02T05:55:29.935Z,5.47
2023-04-02T05:58:33.822Z,5.80
2023-04-02T06:01:29.495Z,4.80
2023-04-02T06:04:03.271Z,4.53
2023-04-02T06:06:45.512Z,4.10
2023-04-02T06:09:18.242Z,4.07
2023-04-02T06:11:51.505Z,4.15
2023-04-02T06:14:20.708Z,3.95
2023-04-02T06:16:51.587Z,4.20
2023-04-02T06:19:26.416Z,4.57
2023-04-02T06:21:59.514Z,3.88
2023-04-02T06:24:29.373Z,3.88
2023-04-02T06:27:01.281Z,3.65
2023-04-02T06:29:39.952Z,3.70
2023-04-02T06:32:12.787Z,3.42
2023-04-02T06:34:43.405Z,3.25
2023-04-02T06:37:35.827Z,3.25
2023-04-02T06:40:25.892Z,3.28
2023-04-02T06:42:59.751Z,3.53
2023-04-02T06:45:40.011Z,3.92
2023-04-02T06:48:21.696Z,5.78
2023-04-02T06:51:02.247Z,4.00
2023-04-02T06:53:37.722Z,4.25
2023-04-02T06:56:42.663Z,3.60
2023-04-02T06:59:12.914Z,3.85
2023-04-02T07:01:44.125Z,3.40
2023-04-02T07:04:11.595Z,4.95
2023-04-02T07:06:42.615Z,5.40
2023-04-02T07:09:11.052Z,6.47
2023-04-02T07:11:41.211Z,6.32
2023-04-02T07:14:12.411Z,5.43
2023-04-02T07:16:40.107Z,5.55
2023-04-02T07:19:07.364Z,5.45
2023-04-02T07:21:37.583Z,5.28
2023-04-02T07:24:07.408Z,4.72
2023-04-02T07:26:34.508Z,4.72
2023-04-02T07:29:01.879Z,4.18
2023-04-02T07:31:29.392Z,3.35
2023-04-02T07:34:00.147Z,2.95
2023-04-02T07:36:29.114Z,1.75
2023-04-02T07:38:56.159Z,1.73
2023-04-02T07:41:23.464Z,1.52
2023-04-02T07:43:50.654Z,1.73
2023-04-02T07:46:19.185Z,1.50
2023-04-02T07:48:47.002Z,0.82
2023-04-02T07:51:23.116Z,0.90
2023-04-02T07:53:55.949Z,0.70
2023-04-02T07:56:25.154Z,0.90
2023-04-02T07:58:52.585Z,0.75
2023-04-02T08:01:26.008Z,1.35
2023-04-02T08:03:54.720Z,1.00
2023-04-02T08:06:22.573Z,2.00
2023-04-02T08:08:50.148Z,1.70
2023-04-02T08:11:17.419Z,1.50
2023-04-02T08:13:44.684Z,1.20
2023-04-02T08:16:11.846Z,1.50
2023-04-02T08:18:39.611Z,0.80
2023-04-02T08:21:08.680Z,1.75
2023-04-02T08:23:37.126Z,2.10
2023-04-02T08:26:05.539Z,1.92
2023-04-02T08:28:32.715Z,0.82
2023-04-02T08:30:59.750Z,1.10
2023-04-02T08:33:27.231Z,1.10
2023-04-02T08:35:54.432Z,1.00
2023-04-02T08:38:21.997Z,1.10
2023-04-02T08:40:54.653Z,1.40
2023-04-02T08:43:25.048Z,1.40
2023-04-02T08:48:18.747Z,1.55
2023-04-02T08:50:46.196Z,1.80
2023-04-02T08:53:30.268Z,1.92
2023-04-02T08:56:05.877Z,2.08
2023-04-02T08:58:44.864Z,1.50
2023-04-02T09:01:20.536Z,1.70
2023-04-02T09:03:50.574Z,1.70
2023-04-02T09:06:19.797Z,1.65
2023-04-02T09:08:48.143Z,1.10
2023-04-02T09:11:39.748Z,1.20
2023-04-02T09:14:14.801Z,1.70
2023-04-02T09:16:44.509Z,1.70
2023-04-02T09:19:19.425Z,1.35
2023-04-02T09:21:53.298Z,1.38
2023-04-02T09:24:20.225Z,1.10
2023-04-02T09:26:47.350Z,0.90
2023-04-02T09:29:14.366Z,0.90
2023-04-02T09:31:47.077Z,0.90
2023-04-02T09:34:29.666Z,1.13
2023-04-02T09:36:57.439Z,0.90
2023-04-02T09:39:28.343Z,1.17
2023-04-02T09:42:05.086Z,1.10
2023-04-02T09:44:34.699Z,0.80
2023-04-02T09:47:05.090Z,0.88
2023-04-02T09:49:34.817Z,1.17
2023-04-02T09:52:28.375Z,0.73
2023-04-02T09:55:18.993Z,0.60
2023-04-02T09:57:47.468Z,0.70
2023-04-02T10:00:31.978Z,0.90
2023-04-02T10:03:19.850Z,0.80
2023-04-02T10:05:47.599Z,0.98
2023-04-02T10:08:28.152Z,0.70
2023-04-02T10:11:01.261Z,1.05
2023-04-02T10:13:35.706Z,1.20
2023-04-02T10:16:40.412Z,1.10
2023-04-02T10:19:20.223Z,1.10
2023-04-02T10:21:49.131Z,1.00
2023-04-02T10:24:16.977Z,1.17
2023-04-02T10:26:50.612Z,1.20
2023-04-02T10:29:44.847Z,1.20
2023-04-02T10:32:25.005Z,1.10
2023-04-02T10:35:04.626Z,1.25
2023-04-02T10:37:31.350Z,1.60
2023-04-02T10:40:01.930Z,1.40
2023-04-02T10:42:38.667Z,1.38
2023-04-02T10:45:18.359Z,1.30
2023-04-02T10:47:50.752Z,1.42
2023-04-02T10:50:32.585Z,1.80
2023-04-02T10:53:21.266Z,0.80
2023-04-02T10:55:53.669Z,0.50
2023-04-02T10:58:25.613Z,0.40
2023-04-02T11:00:56.827Z,0.65
2023-04-02T11:03:36.457Z,0.50
2023-04-02T11:06:14.438Z,0.43
2023-04-02T11:08:46.736Z,0.60
2023-04-02T11:11:18.981Z,0.68
2023-04-02T11:14:04.920Z,0.68
2023-04-02T11:16:31.919Z,0.77
2023-04-02T11:19:16.958Z,0.80
2023-04-02T11:21:57.329Z,0.70
2023-04-02T11:24:32.753Z,1.00
2023-04-02T11:27:11.325Z,1.42
2023-04-02T11:29:40.783Z,1.40
2023-04-02T11:32:25.056Z,1.30
2023-04-02T11:35:05.817Z,1.30
2023-04-02T11:37:39.313Z,1.42
2023-04-02T11:40:12.067Z,1.60
2023-04-02T11:42:44.270Z,1.75
2023-04-02T11:45:28.890Z,2.00
2023-04-02T11:48:08.052Z,1.98
2023-04-02T11:50:42.714Z,2.20
2023-04-02T11:53:12.351Z,2.00
2023-04-02T11:55:41.739Z,1.80
2023-04-02T11:58:22.594Z,1.40
2023-04-02T12:01:18.399Z,1.50
2023-04-02T12:03:53.748Z,1.55
2023-04-02T12:06:49.209Z,1.30
2023-04-02T12:09:24.352Z,1.30
2023-04-02T12:11:54.238Z,1.42
2023-04-02T12:14:32.985Z,1.65
2023-04-02T12:16:59.692Z,1.70
2023-04-02T12:19:27.273Z,1.90
2023-04-02T12:21:54.001Z,1.83
2023-04-02T12:24:22.753Z,1.40
2023-04-02T12:26:49.700Z,2.03
2023-04-02T12:29:21.065Z,2.40
2023-04-02T12:31:48.213Z,1.85
2023-04-02T12:34:20.102Z,2.00
2023-04-02T12:36:59.696Z,1.70
2023-04-02T12:39:28.376Z,1.98
2023-04-02T12:41:56.261Z,1.98
2023-04-02T12:44:29.175Z,1.60
2023-04-02T12:46:57.063Z,1.80
2023-04-02T12:49:36.739Z,1.80
2023-04-02T12:52:09.712Z,1.75
2023-04-02T12:54:43.745Z,1.80
2023-04-02T12:57:25.804Z,1.92
2023-04-02T12:59:53.360Z,1.58
2023-04-02T13:02:24.166Z,1.73
2023-04-02T13:04:52.920Z,1.60
2023-04-02T13:07:22.244Z,1.77
2023-04-02T13:09:53.963Z,1.58
2023-04-02T13:12:36.671Z,1.10
2023-04-02T13:15:06.943Z,1.25
2023-04-02T13:20:36.598Z,1.00
2023-04-02T13:23:29.202Z,1.10
2023-04-02T13:25:57.390Z,1.27
2023-04-02T13:28:24.101Z,1.70
2023-04-02T13:30:50.650Z,1.20
2023-04-02T13:33:17.258Z,1.42
2023-04-02T13:35:44.534Z,1.95
2023-04-02T13:38:11.284Z,1.80
2023-04-02T13:40:38.509Z,1.20
2023-04-02T13:43:06.085Z,1.20
2023-04-02T13:45:32.822Z,1.50
2023-04-02T13:48:01.746Z,1.50
2023-04-02T13:50:29.924Z,1.30
2023-04-02T13:53:04.786Z,1.38
2023-04-02T13:55:34.756Z,1.55
2023-04-02T13:58:01.598Z,1.30
2023-04-02T14:00:28.157Z,1.55
2023-04-02T14:02:59.457Z,1.42
2023-04-02T14:05:42.520Z,1.38
2023-04-02T14:08:11.760Z,1.60
2023-04-02T14:10:56.817Z,1.67
2023-04-02T14:13:33.120Z,1.80
2023-04-02T14:16:11.176Z,2.30
2023-04-02T14:18:56.083Z,2.47
2023-04-02T14:21:32.284Z,2.25
2023-04-02T14:24:09.242Z,1.90
2023-04-02T14:26:57.287Z,2.50
2023-04-02T14:29:47.242Z,2.90
2023-04-02T14:32:38.853Z,2.72
2023-04-02T14:35:20.464Z,2.45
2023-04-02T14:38:24.665Z,2.90
2023-04-02T14:41:04.277Z,2.78
2023-04-02T14:43:35.846Z,3.38
2023-04-02T14:46:07.138Z,2.95
2023-04-02T14:49:24.982Z,3.28
2023-04-02T14:51:54.875Z,2.83
2023-04-02T14:54:39.115Z,2.95
2023-04-02T14:57:29.661Z,3.20
2023-04-02T15:00:01.248Z,3.17
2023-04-02T15:02:36.722Z,3.63
2023-04-02T15:05:06.537Z,4.28
2023-04-02T15:07:39.792Z,4.10
2023-04-02T15:10:22.910Z,3.88
2023-04-02T15:12:50.496Z,3.65
2023-04-02T15:15:41.353Z,4.43
2023-04-02T15:18:12.259Z,3.78
2023-04-02T15:21:05.484Z,3.60
2023-04-02T15:23:49.691Z,3.47
2023-04-02T15:26:29.484Z,3.90
2023-04-02T15:29:25.825Z,4.43
2023-04-02T15:32:03.897Z,3.30
2023-04-02T15:34:35.353Z,3.22
2023-04-02T15:37:17.575Z,2.72
2023-04-02T15:39:56.603Z,3.13
2023-04-02T15:42:29.590Z,2.83
2023-04-02T15:45:12.877Z,3.05
2023-04-02T15:47:57.966Z,2.92
2023-04-02T15:50:44.039Z,2.83
2023-04-02T15:53:52.397Z,2.85
2023-04-02T15:56:34.144Z,2.30
2023-04-02T15:59:14.743Z,3.55
2023-04-02T16:02:31.549Z,3.70
2023-04-02T16:05:01.299Z,3.30
2023-04-02T16:07:55.653Z,3.78
2023-04-02T16:10:38.076Z,3.80
2023-04-02T16:13:31.532Z,4.20
2023-04-02T16:16:07.397Z,3.58
2023-04-02T16:18:52.767Z,3.78
2023-04-02T16:21:22.296Z,3.83
2023-04-02T16:23:49.021Z,3.63
2023-04-02T16:26:30.984Z,3.45
2023-04-02T16:29:07.372Z,3.28
2023-04-02T16:31:52.758Z,4.35
2023-04-02T16:34:22.019Z,3.83
2023-04-02T16:36:52.071Z,4.25
2023-04-02T16:39:35.404Z,4.32
2023-04-02T16:42:08.782Z,4.20
2023-04-02T16:44:51.465Z,4.00
2023-04-02T16:47:55.462Z,4.00
2023-04-02T16:50:38.545Z,4.75
2023-04-02T16:53:17.520Z,4.57
2023-04-02T16:56:08.807Z,5.03
2023-04-02T16:59:04.696Z,4.50
2023-04-02T17:01:46.737Z,4.00
2023-04-02T17:04:16.304Z,5.40
2023-04-02T17:06:43.960Z,4.60
2023-04-02T17:09:18.449Z,5.30
2023-04-02T17:12:21.797Z,4.97
2023-04-02T17:14:57.487Z,5.18
2023-04-02T17:17:24.281Z,4.63
2023-04-02T17:19:55.966Z,6.53
2023-04-02T17:22:23.441Z,6.15
2023-04-02T17:24:57.179Z,6.90
2023-04-02T17:27:26.679Z,6.38
2023-04-02T17:29:55.964Z,6.90
2023-04-02T17:32:29.608Z,6.25
2023-04-02T17:34:57.408Z,5.95
2023-04-02T17:37:30.082Z,6.28
2023-04-02T17:40:28.272Z,6.00
2023-04-02T17:43:21.186Z,5.80
2023-04-02T17:45:52.899Z,5.40
2023-04-02T17:48:46.348Z,5.90
2023-04-02T17:51:30.178Z,6.15
2023-04-02T17:54:13.132Z,6.43
2023-04-02T17:56:51.936Z,6.63
2023-04-02T17:59:21.691Z,6.78
2023-04-02T18:02:00.948Z,6.97
2023-04-02T18:04:49.954Z,6.68
2023-04-02T18:07:38.630Z,6.03
2023-04-02T18:10:27.235Z,7.90
2023-04-02T18:12:57.117Z,7.32
2023-04-02T18:15:42.351Z,6.55
2023-04-02T18:18:26.553Z,6.15
2023-04-02T18:21:02.592Z,6.05
2023-04-02T18:23:38.201Z,7.65
2023-04-02T18:26:11.362Z,6.57
2023-04-02T18:28:57.833Z,7.93
2023-04-02T18:31:36.271Z,6.65
2023-04-02T18:34:29.701Z,6.47
2023-04-02T18:37:05.474Z,8.35
2023-04-02T18:39:51.525Z,6.80
2023-04-02T18:42:46.685Z,7.40
2023-04-02T18:45:22.194Z,7.57
2023-04-02T18:48:04.169Z,9.85
2023-04-02T18:50:36.268Z,8.52
2023-04-02T18:53:24.440Z,8.65
2023-04-02T18:55:57.111Z,7.30
2023-04-02T18:58:28.279Z,7.13
2023-04-02T19:00:55.634Z,7.65
2023-04-02T19:03:28.609Z,7.80
2023-04-02T19:06:03.186Z,7.32
2023-04-02T19:08:38.226Z,6.90
2023-04-02T19:11:09.685Z,6.50
2023-04-02T19:13:36.403Z,6.60
2023-04-02T19:16:25.395Z,7.93
2023-04-02T19:19:22.095Z,6.47
2023-04-02T19:21:55.477Z,6.57
2023-04-02T19:25:03.985Z,6.82
2023-04-02T19:27:33.394Z,5.20
2023-04-02T19:30:27.672Z,6.25
2023-04-02T19:33:15.711Z,5.63
2023-04-02T19:36:08.875Z,5.38
2023-04-02T19:38:57.118Z,5.65
2023-04-02T19:41:31.691Z,6.32
2023-04-02T19:43:58.561Z,6.50
2023-04-02T19:46:26.096Z,6.35
2023-04-02T19:48:59.635Z,7.00
2023-04-02T19:51:27.091Z,5.97
2023-04-02T19:53:53.656Z,6.70
2023-04-02T19:56:20.964Z,8.02
2023-04-02T19:58:47.792Z,7.38
2023-04-02T20:01:14.836Z,5.70
2023-04-02T20:03:41.507Z,6.57
2023-04-02T20:06:08.273Z,6.32
2023-04-02T20:08:36.196Z,6.25
2023-04-02T20:11:03.372Z,6.32
2023-04-02T20:13:29.931Z,5.95
2023-04-02T20:16:01.252Z,6.68
2023-04-02T20:18:28.466Z,4.95
2023-04-02T20:20:55.174Z,6.15
2023-04-02T20:23:22.207Z,7.20
2023-04-02T20:25:54.085Z,6.32
2023-04-02T20:28:21.533Z,6.20
2023-04-02T20:30:50.002Z,5.55
2023-04-02T20:33:18.076Z,6.13
2023-04-02T20:35:45.012Z,5.43
2023-04-02T20:38:11.749Z,5.38
2023-04-02T20:40:41.891Z,5.38
2023-04-02T20:43:09.495Z,5.50
2023-04-02T20:45:37.257Z,5.47
2023-04-02T20:48:04.236Z,5.07
2023-04-02T20:50:31.092Z,5.38
2023-04-02T20:52:58.488Z,5.95
2023-04-02T20:55:25.252Z,6.05
2023-04-02T20:57:51.832Z,4.70
2023-04-02T21:00:18.709Z,6.20
2023-04-02T21:02:45.377Z,4.70
2023-04-02T21:05:12.015Z,5.45
2023-04-02T21:07:38.575Z,4.95
2023-04-02T21:10:06.560Z,5.45
2023-04-02T21:12:33.841Z,5.38
2023-04-02T21:15:02.754Z,4.32
2023-04-02T21:17:29.979Z,4.32
2023-04-02T21:19:56.693Z,4.55
2023-04-02T21:22:23.863Z,4.68
2023-04-02T21:24:50.542Z,4.47
2023-04-02T21:27:17.284Z,4.30
2023-04-02T21:29:43.965Z,5.03
2023-04-02T21:32:20.670Z,4.90
2023-04-02T21:34:47.865Z,4.85
2023-04-02T21:37:14.444Z,4.90
2023-04-02T21:39:41.454Z,4.05
2023-04-02T21:42:08.109Z,4.97
2023-04-02T21:44:34.773Z,4.65
2023-04-02T21:47:01.428Z,4.70
2023-04-02T21:49:28.167Z,4.68
2023-04-02T21:51:54.765Z,3.70
2023-04-02T21:54:21.788Z,4.50
2023-04-02T21:56:48.555Z,4.10
2023-04-02T21:59:16.520Z,3.90
2023-04-02T22:01:45.741Z,4.55
2023-04-02T22:04:18.107Z,3.83
2023-04-02T22:06:45.199Z,3.53
2023-04-02T22:09:14.600Z,4.00
2023-04-02T22:11:47.334Z,3.90
2023-04-02T22:14:14.127Z,4.30
2023-04-02T22:16:41.786Z,3.72
2023-04-02T22:19:11.671Z,4.50
2023-04-02T22:21:38.867Z,4.00
2023-04-02T22:24:08.976Z,3.63
2023-04-02T22:26:36.434Z,3.58
2023-04-02T22:29:03.605Z,3.90
2023-04-02T22:31:31.860Z,3.53
2023-04-02T22:33:59.419Z,3.40
2023-04-02T22:36:27.602Z,3.50
2023-04-02T22:38:54.682Z,3.38
2023-04-02T22:41:27.303Z,3.80
2023-04-02T22:43:55.597Z,3.47
2023-04-02T22:46:22.422Z,3.20
2023-04-02T22:48:49.703Z,3.67
2023-04-02T22:51:18.666Z,3.00
2023-04-02T22:53:45.819Z,3.17
2023-04-02T22:56:14.838Z,2.95
2023-04-02T22:58:41.818Z,2.90
2023-04-02T23:01:27.024Z,2.50
2023-04-02T23:03:54.693Z,2.50
2023-04-02T23:06:21.937Z,2.70
2023-04-02T23:08:48.532Z,2.50
2023-04-02T23:11:22.177Z,2.47
2023-04-02T23:13:51.224Z,2.72
2023-04-02T23:16:18.524Z,2.20
2023-04-02T23:18:47.898Z,2.10
2023-04-02T23:21:14.746Z,2.77
2023-04-02T23:23:41.686Z,2.47
2023-04-02T23:26:14.462Z,1.92
2023-04-02T23:28:41.539Z,2.38
2023-04-02T23:31:11.468Z,2.53
2023-04-02T23:33:38.074Z,2.35
2023-04-02T23:36:14.709Z,2.00
2023-04-02T23:38:41.329Z,2.50
2023-04-02T23:41:07.940Z,2.67
2023-04-02T23:43:34.488Z,2.45
2023-04-02T23:46:01.128Z,2.70
2023-04-02T23:48:27.796Z,2.05
2023-04-02T23:50:54.432Z,2.40
2023-04-02T23:53:21.169Z,2.35
2023-04-02T23:55:47.859Z,2.50
2023-04-02T23:58:14.506Z,2.40
